createdAt,value
2022-10-06T00:03:39.880Z,333.87342
2022-10-06T00:08:41.523Z,319.60976
2022-10-06T00:13:43.084Z,331.42138
2022-10-06T00:18:44.719Z,346.61438
2022-10-06T00:23:46.310Z,377.80282
2022-10-06T00:28:48.008Z,360.21622
2022-10-06T00:33:49.763Z,360.21622
2022-10-06T00:38:51.368Z,351.94702
2022-10-06T00:43:52.984Z,351.94702
2022-10-06T00:48:54.636Z,360.21622
2022-10-06T00:53:56.247Z,360.21622
2022-10-06T00:58:57.858Z,368.82759
2022-10-06T01:03:59.364Z,368.82759
2022-10-06T01:09:00.966Z,363.04762
2022-10-06T01:14:02.541Z,360.21622
2022-10-06T01:19:04.099Z,371.77778
2022-10-06T01:24:05.736Z,380.87943
2022-10-06T01:29:07.369Z,365.91781
2022-10-06T01:34:09.009Z,368.82759
2022-10-06T01:39:10.626Z,390.37681
2022-10-06T01:44:12.305Z,374.76923
2022-10-06T01:49:13.906Z,371.77778
2022-10-06T01:54:15.538Z,377.80282
2022-10-06T01:59:17.140Z,380.87943
2022-10-06T02:04:18.797Z,387.16547
2022-10-06T02:09:20.435Z,387.16547
2022-10-06T02:14:22.193Z,387.16547
2022-10-06T02:19:23.837Z,387.16547
2022-10-06T02:24:25.450Z,393.63504
2022-10-06T02:29:27.082Z,396.94118
2022-10-06T02:34:28.709Z,393.63504
2022-10-06T02:39:30.330Z,393.63504
2022-10-06T02:44:31.994Z,400.2963
2022-10-06T02:49:33.571Z,400.2963
2022-10-06T02:54:35.173Z,407.15789
2022-10-06T02:59:36.765Z,400.2963
2022-10-06T03:04:38.356Z,407.15789
2022-10-06T03:09:40.036Z,417.84615
2022-10-06T03:14:41.636Z,410.66667
2022-10-06T03:19:43.240Z,384
2022-10-06T03:24:44.850Z,400.2963
2022-10-06T03:29:46.426Z,403.70149
2022-10-06T03:34:48.035Z,417.84615
2022-10-06T03:39:49.754Z,407.15789
2022-10-06T03:44:51.356Z,410.66667
2022-10-06T03:49:52.948Z,400.2963
2022-10-06T03:54:54.518Z,421.51938
2022-10-06T03:59:56.115Z,425.25
2022-10-06T04:04:57.722Z,417.84615
2022-10-06T04:09:59.299Z,417.84615
2022-10-06T04:15:01.000Z,421.51938
2022-10-06T04:20:02.686Z,432.88889
2022-10-06T04:25:04.338Z,440.77419
2022-10-06T04:30:05.887Z,425.25
2022-10-06T04:35:07.511Z,421.51938
2022-10-06T04:40:09.107Z,453.09091
2022-10-06T04:45:10.699Z,440.77419
2022-10-06T04:50:12.265Z,436.8
2022-10-06T04:55:13.847Z,444.81301
2022-10-06T05:00:15.426Z,448.91803
2022-10-06T05:05:17.028Z,466.0339
2022-10-06T05:10:18.625Z,466.0339
2022-10-06T05:15:20.252Z,453.09091
2022-10-06T05:20:21.809Z,470.49573
2022-10-06T05:25:23.449Z,489.13274
2022-10-06T05:30:25.077Z,484.35088
2022-10-06T05:35:26.680Z,494
2022-10-06T05:40:28.307Z,494
2022-10-06T05:45:29.941Z,475.03448
2022-10-06T05:50:31.569Z,475.03448
2022-10-06T05:55:33.223Z,479.65217
2022-10-06T06:00:34.826Z,489.13274
2022-10-06T06:05:36.575Z,489.13274
2022-10-06T06:10:38.155Z,484.35088
2022-10-06T06:15:39.759Z,514.37037
2022-10-06T06:20:41.369Z,509.13761
2022-10-06T06:25:42.979Z,498.95495
2022-10-06T06:30:44.624Z,504
2022-10-06T06:35:46.267Z,536.30769
2022-10-06T06:40:47.847Z,519.70093
2022-10-06T06:45:49.472Z,498.95495
2022-10-06T06:50:51.118Z,498.95495
2022-10-06T06:55:52.694Z,504
2022-10-06T07:00:54.340Z,530.66667
2022-10-06T07:05:55.999Z,509.13761
2022-10-06T07:10:57.569Z,519.70093
2022-10-06T07:15:59.250Z,509.13761
2022-10-06T07:21:01.070Z,509.13761
2022-10-06T07:26:02.660Z,514.37037
2022-10-06T07:31:04.290Z,514.37037
2022-10-06T07:36:05.909Z,494
2022-10-06T07:41:19.044Z,498.95495
2022-10-06T07:46:21.606Z,475.03448
2022-10-06T07:51:23.187Z,498.95495
2022-10-06T07:56:24.798Z,494
2022-10-06T08:01:26.530Z,475.03448
2022-10-06T08:06:28.137Z,479.65217
2022-10-06T08:11:29.652Z,494
2022-10-06T08:16:31.326Z,494
2022-10-06T08:21:32.940Z,494
2022-10-06T08:26:34.600Z,489.13274
2022-10-06T08:31:36.360Z,514.37037
2022-10-06T08:36:37.954Z,498.95495
2022-10-06T08:41:39.551Z,498.95495
2022-10-06T08:46:41.167Z,498.95495
2022-10-06T08:51:42.853Z,504
2022-10-06T08:56:44.501Z,504
2022-10-06T09:01:46.298Z,504
2022-10-06T09:06:47.967Z,484.35088
2022-10-06T09:11:49.632Z,504
2022-10-06T09:16:51.265Z,489.13274
2022-10-06T09:21:53.050Z,504
2022-10-06T09:26:54.698Z,494
2022-10-06T09:31:56.287Z,504
2022-10-06T09:37:01.278Z,525.13208
2022-10-06T09:42:03.853Z,514.37037
2022-10-06T09:47:05.408Z,525.13208
2022-10-06T09:52:06.967Z,504
2022-10-06T09:57:08.597Z,525.13208
2022-10-06T10:02:10.229Z,514.37037
2022-10-06T10:07:11.897Z,504
2022-10-06T10:12:13.511Z,519.70093
2022-10-06T10:17:15.147Z,525.13208
2022-10-06T10:22:16.740Z,504
2022-10-06T10:27:18.371Z,509.13761
2022-10-06T10:32:20.019Z,509.13761
2022-10-06T10:37:21.688Z,509.13761
2022-10-06T10:42:23.316Z,509.13761
2022-10-06T10:47:24.895Z,525.13208
2022-10-06T10:52:26.524Z,514.37037
2022-10-06T10:57:28.122Z,525.13208
2022-10-06T11:02:29.700Z,530.66667
2022-10-06T11:07:31.313Z,519.70093
2022-10-06T11:12:32.900Z,519.70093
2022-10-06T11:17:34.472Z,525.13208
2022-10-06T11:22:36.037Z,519.70093
2022-10-06T11:27:37.608Z,504
2022-10-06T11:32:39.206Z,514.37037
2022-10-06T11:37:40.843Z,519.70093
2022-10-06T11:42:42.458Z,519.70093
2022-10-06T11:47:44.082Z,504
2022-10-06T11:52:45.690Z,519.70093
2022-10-06T11:57:47.277Z,498.95495
2022-10-06T12:02:49.022Z,504
2022-10-06T12:07:50.711Z,509.13761
2022-10-06T12:13:06.295Z,514.37037
2022-10-06T12:18:09.002Z,509.13761
2022-10-06T12:23:10.573Z,514.37037
2022-10-06T12:28:12.220Z,525.13208
2022-10-06T12:33:13.828Z,514.37037
2022-10-06T12:38:15.389Z,525.13208
2022-10-06T12:43:17.014Z,530.66667
2022-10-06T12:48:18.877Z,514.37037
2022-10-06T12:53:20.611Z,530.66667
2022-10-06T12:58:22.227Z,536.30769
2022-10-06T13:03:24.169Z,536.30769
2022-10-06T13:08:25.817Z,530.66667
2022-10-06T13:13:27.417Z,525.13208
2022-10-06T13:18:29.032Z,514.37037
2022-10-06T13:23:30.685Z,514.37037
2022-10-06T13:28:32.387Z,514.37037
2022-10-06T13:33:34.049Z,514.37037
2022-10-06T13:38:35.661Z,519.70093
2022-10-06T13:43:39.625Z,519.70093
2022-10-06T13:48:41.516Z,504
2022-10-06T13:53:43.129Z,498.95495
2022-10-06T13:58:44.731Z,479.65217
2022-10-06T14:03:46.431Z,494
2022-10-06T14:08:48.048Z,494
2022-10-06T14:13:49.630Z,509.13761
2022-10-06T14:18:51.288Z,498.95495
2022-10-06T14:23:52.956Z,519.70093
2022-10-06T14:28:54.556Z,504
2022-10-06T14:33:56.142Z,498.95495
2022-10-06T14:38:57.714Z,530.66667
2022-10-06T14:43:59.294Z,509.13761
2022-10-06T14:49:00.892Z,504
2022-10-06T14:54:02.490Z,525.13208
2022-10-06T14:59:04.127Z,530.66667
2022-10-06T15:04:05.748Z,519.70093
2022-10-06T15:09:07.360Z,514.37037
2022-10-06T15:14:09.104Z,519.70093
2022-10-06T15:19:10.782Z,525.13208
2022-10-06T15:24:12.358Z,536.30769
2022-10-06T15:29:13.973Z,536.30769
2022-10-06T15:34:15.569Z,525.13208
2022-10-06T15:39:17.136Z,530.66667
2022-10-06T15:44:18.699Z,536.30769
2022-10-06T15:49:20.326Z,542.05825
2022-10-06T15:54:21.967Z,542.05825
2022-10-06T15:59:23.543Z,536.30769
2022-10-06T16:04:25.107Z,536.30769
2022-10-06T16:09:26.703Z,547.92157
2022-10-06T16:14:28.297Z,536.30769
2022-10-06T16:19:29.942Z,547.92157
2022-10-06T16:24:31.522Z,553.90099
2022-10-06T16:29:33.129Z,536.30769
2022-10-06T16:34:34.752Z,525.13208
2022-10-06T16:39:36.328Z,530.66667
2022-10-06T16:44:37.931Z,542.05825
2022-10-06T16:49:39.502Z,536.30769
2022-10-06T16:54:41.106Z,525.13208
2022-10-06T16:59:46.599Z,536.30769
2022-10-06T17:04:48.630Z,525.13208
2022-10-06T17:10:15.292Z,542.05825
2022-10-06T17:15:21.152Z,536.30769
2022-10-06T17:20:22.763Z,542.05825
2022-10-06T17:25:24.442Z,530.66667
2022-10-06T17:30:26.071Z,542.05825
2022-10-06T17:35:27.676Z,542.05825
2022-10-06T17:40:29.270Z,553.90099
2022-10-06T17:45:30.908Z,542.05825
2022-10-06T17:50:32.562Z,547.92157
2022-10-06T17:55:34.148Z,536.30769
2022-10-06T18:00:35.763Z,542.05825
2022-10-06T18:05:37.370Z,560
2022-10-06T18:10:38.943Z,536.30769
2022-10-06T18:15:40.526Z,560
2022-10-06T18:20:42.108Z,514.37037
2022-10-06T18:25:43.702Z,498.95495
2022-10-06T18:30:45.276Z,514.37037
2022-10-06T18:36:14.369Z,553.90099
2022-10-06T18:41:16.784Z,553.90099
2022-10-06T18:46:18.520Z,566.22222
2022-10-06T18:51:20.156Z,579.05155
2022-10-06T18:56:21.812Z,566.22222
2022-10-06T19:01:23.517Z,572.57143
2022-10-06T19:06:25.177Z,579.05155
2022-10-06T19:11:26.798Z,572.57143
2022-10-06T19:16:28.470Z,572.57143
2022-10-06T19:21:30.123Z,566.22222
2022-10-06T19:26:31.769Z,566.22222
2022-10-06T19:31:33.358Z,592.42105
2022-10-06T19:36:34.980Z,560
2022-10-06T19:41:36.607Z,542.05825
2022-10-06T19:46:38.233Z,560
2022-10-06T19:51:39.838Z,525.13208
2022-10-06T19:56:41.424Z,479.65217
2022-10-06T20:01:43.050Z,484.35088
2022-10-06T20:06:44.676Z,509.13761
2022-10-06T20:11:46.308Z,504
2022-10-06T20:16:47.964Z,525.13208
2022-10-06T20:21:49.593Z,489.13274
2022-10-06T20:26:51.259Z,461.64706
2022-10-06T20:31:52.908Z,475.03448
2022-10-06T20:36:56.205Z,479.65217
2022-10-06T20:41:57.927Z,509.13761
2022-10-06T20:46:59.491Z,484.35088
2022-10-06T20:52:01.077Z,470.49573
2022-10-06T20:57:02.781Z,489.13274
2022-10-06T21:02:04.347Z,489.13274
2022-10-06T21:07:06.179Z,489.13274
2022-10-06T21:12:07.791Z,484.35088
2022-10-06T21:17:09.412Z,470.49573
2022-10-06T21:22:10.984Z,494
2022-10-06T21:27:12.591Z,498.95495
2022-10-06T21:32:14.194Z,470.49573
2022-10-06T21:37:15.798Z,475.03448
2022-10-06T21:42:17.407Z,475.03448
2022-10-06T21:47:19.091Z,470.49573
2022-10-06T21:52:20.710Z,479.65217
2022-10-06T21:57:22.296Z,466.0339
2022-10-06T22:02:23.986Z,494
2022-10-06T22:07:25.690Z,479.65217
2022-10-06T22:12:27.275Z,432.88889
2022-10-06T22:17:28.872Z,436.8
2022-10-06T22:22:30.515Z,453.09091
2022-10-06T22:27:32.076Z,440.77419
2022-10-06T22:32:33.683Z,432.88889
2022-10-06T22:37:35.294Z,432.88889
2022-10-06T22:42:36.891Z,436.8
2022-10-06T22:47:38.446Z,453.09091
2022-10-06T22:52:40.198Z,448.91803
2022-10-06T22:57:42.176Z,461.64706
2022-10-06T23:02:44.031Z,444.81301
2022-10-06T23:07:46.057Z,466.0339
2022-10-06T23:12:47.984Z,466.0339
2022-10-06T23:17:49.553Z,457.33333
2022-10-06T23:22:51.197Z,444.81301
2022-10-06T23:27:52.785Z,436.8
2022-10-06T23:32:54.368Z,444.81301
2022-10-06T23:37:56.038Z,407.15789
2022-10-06T23:42:57.748Z,393.63504
2022-10-06T23:47:59.353Z,417.84615
2022-10-06T23:53:00.925Z,461.64706
2022-10-06T23:58:02.559Z,440.77419
